createdAt,value
2018-08-22T00:04:09.623Z,18.10
2018-08-22T00:06:39.580Z,18.10
2018-08-22T00:09:09.812Z,18.10
2018-08-22T00:14:08.647Z,17.70
2018-08-22T00:16:38.133Z,18.00
2018-08-22T00:19:07.721Z,18.40
2018-08-22T00:24:05.815Z,18.20
2018-08-22T00:29:05.387Z,17.80
2018-08-22T00:31:34.724Z,17.80
2018-08-22T00:34:04.055Z,17.50
2018-08-22T00:36:33.354Z,18.30
2018-08-22T00:39:08.115Z,18.60
2018-08-22T00:46:36.316Z,17.40
2018-08-22T00:49:05.987Z,18.00
2018-08-22T00:51:36.017Z,18.00
2018-08-22T00:54:05.390Z,18.10
2018-08-22T00:56:35.967Z,18.00
2018-08-22T00:59:05.419Z,17.50
2018-08-22T01:01:34.799Z,17.40
2018-08-22T01:04:04.088Z,17.70
2018-08-22T01:09:02.652Z,17.80
2018-08-22T01:11:32.053Z,17.20
2018-08-22T01:14:01.606Z,17.80
2018-08-22T01:16:31.030Z,17.30
2018-08-22T01:19:00.341Z,17.20
2018-08-22T01:21:29.669Z,17.10
2018-08-22T01:23:59.668Z,17.40
2018-08-22T01:29:04.706Z,17.90
2018-08-22T01:31:34.029Z,17.80
2018-08-22T01:36:34.251Z,17.60
2018-08-22T01:39:04.263Z,17.20
2018-08-22T01:41:33.583Z,17.20
2018-08-22T01:44:03.001Z,17.50
2018-08-22T01:46:33.287Z,17.30
2018-08-22T01:51:31.683Z,17.30
2018-08-22T01:54:01.028Z,18.20
2018-08-22T01:56:30.367Z,16.90
2018-08-22T01:58:59.579Z,17.40
2018-08-22T02:01:28.848Z,17.60
2018-08-22T02:03:58.226Z,16.70
2018-08-22T02:08:57.047Z,17.30
2018-08-22T02:11:26.412Z,17.60
2018-08-22T02:13:55.662Z,17.00
2018-08-22T02:21:23.538Z,16.50
2018-08-22T02:23:52.855Z,16.40
2018-08-22T02:26:22.179Z,16.20
2018-08-22T02:28:51.584Z,16.20
2018-08-22T02:31:20.824Z,16.90
2018-08-22T02:33:50.163Z,16.20
2018-08-22T02:36:19.507Z,16.40
2018-08-22T02:38:48.871Z,16.60
2018-08-22T02:41:18.293Z,16.90
2018-08-22T02:43:47.614Z,16.80
2018-08-22T02:46:17.044Z,16.60
2018-08-22T02:48:51.620Z,16.00
2018-08-22T02:51:21.071Z,16.50
2018-08-22T02:53:50.500Z,16.70
2018-08-22T02:56:19.977Z,16.70
2018-08-22T02:58:49.488Z,16.00
2018-08-22T03:03:48.058Z,16.70
2018-08-22T03:08:46.596Z,16.20
2018-08-22T03:13:45.997Z,16.70
2018-08-22T03:16:15.465Z,17.00
2018-08-22T03:18:44.816Z,16.00
2018-08-22T03:21:14.144Z,16.20
2018-08-22T03:23:43.604Z,16.10
2018-08-22T03:26:13.641Z,16.00
2018-08-22T03:33:41.481Z,15.80
2018-08-22T03:36:10.800Z,15.80
2018-08-22T03:46:08.258Z,15.90
2018-08-22T03:48:37.785Z,16.20
2018-08-22T03:51:07.110Z,16.30
2018-08-22T03:53:36.415Z,15.80
2018-08-22T04:01:04.047Z,16.20
2018-08-22T04:03:33.680Z,16.20
2018-08-22T04:06:03.012Z,16.20
2018-08-22T04:08:32.491Z,15.60
2018-08-22T04:11:01.798Z,16.20
2018-08-22T04:20:59.340Z,15.60
2018-08-22T04:23:28.690Z,15.80
2018-08-22T04:25:58.169Z,15.80
2018-08-22T04:28:27.606Z,16.10
2018-08-22T04:30:56.846Z,16.20
2018-08-22T04:33:26.051Z,15.20
2018-08-22T04:35:55.276Z,15.50
2018-08-22T04:38:24.517Z,15.60
2018-08-22T04:40:53.743Z,15.50
2018-08-22T04:43:23.047Z,16.10
2018-08-22T04:45:52.249Z,16.10
2018-08-22T04:48:21.575Z,16.00
2018-08-22T04:50:51.356Z,16.30
2018-08-22T04:55:49.539Z,16.00
2018-08-22T04:58:18.691Z,15.90
2018-08-22T05:00:47.887Z,16.30
2018-08-22T05:03:17.130Z,16.10
2018-08-22T05:05:46.469Z,16.20
2018-08-22T05:10:45.415Z,17.30
2018-08-22T05:13:14.678Z,17.00
2018-08-22T05:15:43.878Z,16.60
2018-08-22T05:20:42.066Z,16.50
2018-08-22T05:23:11.282Z,16.80
2018-08-22T05:25:40.545Z,16.70
2018-08-22T05:28:09.764Z,17.20
2018-08-22T05:30:38.963Z,17.30
2018-08-22T05:33:08.900Z,17.60
2018-08-22T05:38:07.211Z,17.80
2018-08-22T05:40:36.563Z,18.00
2018-08-22T05:45:34.883Z,18.40
2018-08-22T05:53:02.202Z,19.00
2018-08-22T05:58:00.734Z,19.40
2018-08-22T06:00:29.908Z,19.40
2018-08-22T06:02:59.212Z,19.50
2018-08-22T06:05:29.175Z,19.20
2018-08-22T06:10:27.567Z,20.20
2018-08-22T06:12:56.861Z,20.20
2018-08-22T06:15:26.182Z,20.70
2018-08-22T06:17:55.465Z,20.90
2018-08-22T06:22:53.646Z,21.30
2018-08-22T06:25:22.823Z,21.60
2018-08-22T06:30:21.217Z,21.60
2018-08-22T06:32:50.508Z,21.80
2018-08-22T06:35:20.410Z,21.90
2018-08-22T06:37:49.661Z,22.10
2018-08-22T06:40:18.894Z,22.10
2018-08-22T06:45:17.104Z,22.30
2018-08-22T06:47:46.322Z,22.70
2018-08-22T06:50:15.757Z,22.40
2018-08-22T06:52:45.166Z,23.00
2018-08-22T06:57:43.602Z,23.20
2018-08-22T07:00:12.860Z,23.40
2018-08-22T07:02:42.090Z,23.10
2018-08-22T07:07:40.798Z,23.50
2018-08-22T07:10:10.149Z,23.60
2018-08-22T07:12:40.583Z,23.10
2018-08-22T07:15:09.873Z,23.80
2018-08-22T07:17:39.124Z,23.70
2018-08-22T07:20:08.612Z,23.60
2018-08-22T07:22:38.053Z,22.90
2018-08-22T07:25:07.383Z,23.70
2018-08-22T07:27:36.756Z,23.70
2018-08-22T07:30:06.688Z,23.80
2018-08-22T07:32:36.104Z,23.80
2018-08-22T07:35:06.077Z,23.40
2018-08-22T07:37:35.460Z,24.10
2018-08-22T07:40:05.485Z,23.90
2018-08-22T07:42:34.845Z,24.30
2018-08-22T07:45:04.152Z,24.30
2018-08-22T07:47:33.486Z,24.00
2018-08-22T07:50:02.833Z,24.30
2018-08-22T07:52:32.228Z,24.40
2018-08-22T07:55:01.888Z,24.70
2018-08-22T07:57:31.325Z,24.60
2018-08-22T08:05:02.336Z,25.00
2018-08-22T08:10:00.780Z,25.30
2018-08-22T08:15:10.186Z,25.30
2018-08-22T08:17:39.538Z,25.30
2018-08-22T08:20:09.022Z,25.70
2018-08-22T08:25:08.744Z,25.30
2018-08-22T08:30:08.037Z,25.30
2018-08-22T08:32:37.709Z,25.90
2018-08-22T08:35:07.067Z,25.90
2018-08-22T08:40:08.544Z,26.20
2018-08-22T08:42:37.952Z,25.70
2018-08-22T08:45:09.916Z,25.70
2018-08-22T08:47:39.253Z,25.40
2018-08-22T08:50:09.025Z,26.30
2018-08-22T08:52:38.483Z,26.20
2018-08-22T08:55:08.041Z,25.90
2018-08-22T08:57:37.591Z,26.10
2018-08-22T09:00:06.947Z,26.00
2018-08-22T09:05:06.160Z,26.20
2018-08-22T09:07:35.531Z,26.40
2018-08-22T09:12:38.040Z,26.50
2018-08-22T09:15:08.373Z,26.40
2018-08-22T09:20:08.175Z,26.60
2018-08-22T09:22:37.605Z,26.60
2018-08-22T09:25:07.051Z,26.10
2018-08-22T09:27:36.493Z,26.70
2018-08-22T09:32:35.188Z,26.20
2018-08-22T09:40:03.116Z,25.90
2018-08-22T09:42:33.115Z,26.30
2018-08-22T09:45:03.312Z,26.00
2018-08-22T09:47:32.668Z,26.30
2018-08-22T09:52:31.125Z,26.00
2018-08-22T09:55:05.108Z,25.60
2018-08-22T09:57:34.407Z,25.70
2018-08-22T10:00:05.752Z,25.40
2018-08-22T10:12:31.848Z,25.10
2018-08-22T10:15:01.362Z,25.30
2018-08-22T10:17:30.644Z,25.30
2018-08-22T10:20:00.032Z,24.80
2018-08-22T10:22:29.408Z,25.40
2018-08-22T10:24:58.787Z,25.50
2018-08-22T10:27:28.191Z,25.40
2018-08-22T10:29:58.537Z,25.50
2018-08-22T10:32:28.053Z,25.40
2018-08-22T10:34:57.443Z,25.80
2018-08-22T10:37:26.803Z,25.40
2018-08-22T10:42:25.423Z,25.70
2018-08-22T10:44:54.993Z,26.20
2018-08-22T10:47:24.547Z,26.20
2018-08-22T10:49:54.682Z,25.90
2018-08-22T10:52:24.285Z,26.20
2018-08-22T10:54:53.619Z,25.80
2018-08-22T10:57:23.055Z,25.60
2018-08-22T10:59:54.489Z,25.50
2018-08-22T11:04:53.085Z,25.70
2018-08-22T11:07:22.524Z,26.10
2018-08-22T11:09:52.560Z,26.00
2018-08-22T11:12:21.941Z,25.80
2018-08-22T11:14:51.575Z,25.80
2018-08-22T11:17:21.050Z,26.20
2018-08-22T11:19:50.330Z,26.30
2018-08-22T11:22:36.780Z,25.80
2018-08-22T11:25:23.153Z,26.00
2018-08-22T11:28:09.390Z,26.30
2018-08-22T11:30:55.874Z,26.10
2018-08-22T11:36:04.518Z,26.30
2018-08-22T11:41:03.099Z,26.20
2018-08-22T11:43:32.425Z,26.20
2018-08-22T11:50:59.972Z,26.50
2018-08-22T11:58:27.564Z,26.40
2018-08-22T12:00:57.096Z,26.10
2018-08-22T12:03:26.406Z,25.90
2018-08-22T12:05:55.847Z,25.90
2018-08-22T12:08:25.355Z,26.00
2018-08-22T12:10:54.700Z,26.10
2018-08-22T12:13:23.963Z,25.80
2018-08-22T12:15:53.316Z,26.30
2018-08-22T12:18:22.749Z,26.20
2018-08-22T12:20:52.141Z,25.80
2018-08-22T12:23:23.799Z,27.00
2018-08-22T12:28:22.396Z,26.70
2018-08-22T12:30:51.827Z,27.10
2018-08-22T12:33:21.611Z,26.80
2018-08-22T12:38:20.187Z,26.90
2018-08-22T12:40:50.033Z,26.20
2018-08-22T12:43:19.309Z,26.60
2018-08-22T12:48:17.794Z,26.30
2018-08-22T12:50:47.122Z,26.50
2018-08-22T12:53:16.418Z,26.20
2018-08-22T12:55:45.764Z,26.70
2018-08-22T13:00:44.209Z,26.80
2018-08-22T13:03:13.603Z,26.30
2018-08-22T13:08:12.177Z,26.20
2018-08-22T13:13:10.861Z,26.60
2018-08-22T13:15:40.401Z,26.10
2018-08-22T13:18:09.758Z,26.20
2018-08-22T13:23:09.278Z,26.30
2018-08-22T13:25:38.623Z,26.40
2018-08-22T13:30:37.266Z,26.30
2018-08-22T13:33:06.623Z,27.00
2018-08-22T13:35:37.799Z,26.40
2018-08-22T13:38:07.774Z,26.30
2018-08-22T13:43:06.502Z,26.60
2018-08-22T13:45:35.896Z,26.60
2018-08-22T13:48:08.494Z,26.70
2018-08-22T13:50:38.501Z,26.30
2018-08-22T13:53:08.770Z,26.80
2018-08-22T13:55:38.459Z,26.40
2018-08-22T13:58:07.919Z,26.90
2018-08-22T14:00:37.276Z,27.00
2018-08-22T14:05:35.802Z,27.10
2018-08-22T14:08:05.123Z,27.20
2018-08-22T14:10:34.599Z,26.70
2018-08-22T14:13:04.001Z,26.70
2018-08-22T14:18:02.946Z,26.90
2018-08-22T14:25:31.644Z,26.60
2018-08-22T14:28:01.080Z,26.80
2018-08-22T14:32:59.528Z,27.20
2018-08-22T14:35:29.014Z,26.40
2018-08-22T14:37:58.277Z,27.00
2018-08-22T14:42:56.695Z,27.10
2018-08-22T14:45:26.033Z,27.10
2018-08-22T14:47:56.637Z,27.00
2018-08-22T14:52:55.736Z,26.90
2018-08-22T14:55:25.174Z,26.60
2018-08-22T14:57:54.673Z,27.10
2018-08-22T15:00:24.042Z,27.10
2018-08-22T15:02:54.478Z,27.30
2018-08-22T15:07:52.898Z,27.30
2018-08-22T15:10:22.196Z,26.70
2018-08-22T15:12:51.486Z,27.00
2018-08-22T15:15:20.805Z,26.70
2018-08-22T15:17:50.090Z,27.30
2018-08-22T15:22:49.556Z,26.40
2018-08-22T15:25:19.034Z,27.00
2018-08-22T15:27:48.556Z,27.20
2018-08-22T15:30:17.965Z,26.70
2018-08-22T15:32:47.856Z,26.60
2018-08-22T15:35:17.258Z,26.70
2018-08-22T15:37:46.784Z,26.60
2018-08-22T15:40:16.128Z,27.10
2018-08-22T15:42:45.507Z,27.00
2018-08-22T15:45:14.879Z,26.40
2018-08-22T15:47:44.901Z,26.90
2018-08-22T15:52:43.253Z,26.60
2018-08-22T15:55:15.760Z,27.10
2018-08-22T16:00:36.381Z,26.90
2018-08-22T16:03:07.168Z,27.00
2018-08-22T16:05:37.396Z,26.90
2018-08-22T16:10:36.859Z,25.80
2018-08-22T16:15:39.345Z,26.70
2018-08-22T16:18:09.823Z,26.50
2018-08-22T16:20:46.862Z,25.90
2018-08-22T16:25:47.853Z,26.60
2018-08-22T16:28:17.588Z,26.40
2018-08-22T16:30:56.771Z,26.40
2018-08-22T16:33:40.368Z,26.10
2018-08-22T16:36:14.543Z,26.30
2018-08-22T16:38:43.892Z,26.40
2018-08-22T16:41:13.263Z,26.40
2018-08-22T16:43:43.701Z,26.20
2018-08-22T16:48:47.583Z,26.30
2018-08-22T16:56:41.922Z,26.60
2018-08-22T17:01:48.377Z,26.40
2018-08-22T17:06:47.247Z,26.20
2018-08-22T17:11:45.855Z,26.30
2018-08-22T17:14:15.280Z,26.50
2018-08-22T17:16:44.671Z,26.50
2018-08-22T17:19:14.165Z,26.40
2018-08-22T17:21:43.581Z,26.80
2018-08-22T17:24:13.113Z,26.30
2018-08-22T17:26:42.454Z,26.50
2018-08-22T17:31:40.901Z,26.10
2018-08-22T17:34:10.237Z,25.90
2018-08-22T17:39:08.928Z,26.00
2018-08-22T17:49:10.027Z,26.30
2018-08-22T17:52:12.666Z,26.10
2018-08-22T17:54:42.133Z,25.50
2018-08-22T17:57:21.254Z,26.30
2018-08-22T17:59:53.572Z,26.00
2018-08-22T18:05:03.878Z,26.10
2018-08-22T18:17:41.813Z,25.20
2018-08-22T18:20:13.338Z,25.00
2018-08-22T18:22:42.927Z,24.90
2018-08-22T18:25:12.320Z,24.90
2018-08-22T18:27:42.581Z,24.70
2018-08-22T18:38:10.585Z,24.30
2018-08-22T18:40:39.954Z,24.30
2018-08-22T18:43:09.646Z,24.10
2018-08-22T18:45:55.016Z,23.90
2018-08-22T18:48:24.481Z,24.30
2018-08-22T18:51:00.742Z,24.40
2018-08-22T18:59:12.632Z,24.70
2018-08-22T19:07:07.071Z,24.70
2018-08-22T19:09:39.919Z,24.60
2018-08-22T19:12:09.372Z,24.70
2018-08-22T19:17:28.738Z,24.60
2018-08-22T19:22:27.087Z,24.50
2018-08-22T19:25:06.339Z,23.80
2018-08-22T19:32:42.076Z,23.80
2018-08-22T19:35:11.689Z,23.60
2018-08-22T19:37:41.084Z,23.90
2018-08-22T19:40:11.008Z,23.80
2018-08-22T19:42:41.053Z,23.90
2018-08-22T19:45:10.588Z,23.40
2018-08-22T19:50:10.235Z,23.70
2018-08-22T19:52:39.527Z,23.70
2018-08-22T19:55:09.104Z,24.20
2018-08-22T19:57:39.929Z,23.80
2018-08-22T20:00:16.190Z,23.70
2018-08-22T20:08:39.904Z,23.80
2018-08-22T20:11:09.184Z,23.90
2018-08-22T20:16:31.940Z,23.50
2018-08-22T20:21:44.738Z,23.50
2018-08-22T20:24:14.208Z,23.50
2018-08-22T20:29:18.865Z,23.20
2018-08-22T20:31:48.280Z,23.50
2018-08-22T20:36:49.287Z,22.80
2018-08-22T20:39:18.717Z,23.00
2018-08-22T20:41:50.723Z,23.20
2018-08-22T20:46:50.760Z,23.20
2018-08-22T20:49:20.934Z,23.10
2018-08-22T20:51:50.314Z,23.10
2018-08-22T20:56:55.978Z,23.10
2018-08-22T21:02:03.546Z,23.30
2018-08-22T21:04:33.232Z,23.30
2018-08-22T21:07:02.632Z,23.40
2018-08-22T21:09:32.030Z,23.40
2018-08-22T21:12:01.432Z,23.00
2018-08-22T21:17:00.440Z,23.20
2018-08-22T21:19:29.833Z,23.50
2018-08-22T21:22:03.189Z,22.90
2018-08-22T21:24:32.664Z,23.40
2018-08-22T21:27:02.025Z,23.10
2018-08-22T21:29:38.121Z,23.00
2018-08-22T21:34:37.194Z,23.30
2018-08-22T21:37:25.980Z,23.00
2018-08-22T21:42:57.637Z,23.10
2018-08-22T21:45:27.037Z,23.10
2018-08-22T21:50:43.287Z,22.90
2018-08-22T21:58:12.395Z,22.70
2018-08-22T22:00:44.802Z,22.50
2018-08-22T22:05:51.238Z,22.50
2018-08-22T22:08:20.709Z,22.30
2018-08-22T22:13:19.586Z,22.00
2018-08-22T22:20:52.960Z,21.60
2018-08-22T22:23:22.355Z,21.50
2018-08-22T22:25:51.719Z,21.40
2018-08-22T22:28:25.781Z,21.30
2018-08-22T22:30:55.872Z,21.20
2018-08-22T22:35:54.428Z,21.30
2018-08-22T22:38:24.400Z,21.00
2018-08-22T22:40:53.856Z,21.60
2018-08-22T22:43:23.361Z,21.00
2018-08-22T22:45:52.833Z,21.00
2018-08-22T22:48:35.394Z,20.70
2018-08-22T22:51:04.792Z,21.20
2018-08-22T22:56:03.452Z,21.00
2018-08-22T22:58:34.513Z,20.90
2018-08-22T23:01:03.788Z,20.80
2018-08-22T23:03:33.125Z,20.80
2018-08-22T23:06:02.383Z,20.40
2018-08-22T23:08:31.703Z,20.70
2018-08-22T23:13:30.881Z,20.40
2018-08-22T23:16:00.265Z,20.70
2018-08-22T23:18:29.725Z,20.30
2018-08-22T23:26:16.073Z,20.70
2018-08-22T23:31:19.369Z,20.30
2018-08-22T23:33:48.807Z,20.50
2018-08-22T23:36:18.125Z,20.40
2018-08-22T23:41:16.681Z,20.50
2018-08-22T23:46:21.916Z,20.50
2018-08-22T23:48:57.536Z,20.30
2018-08-22T23:53:59.423Z,20.20
2018-08-22T23:58:59.519Z,20.30
